Lovelock, Nevada
Current Conditions -  °F | °C
As of 4:53 AM on Monday 20 Oct 2014 (Local Time) from KLOL Reporting Station
Clear Clear  
Wind Chill: 33°   Ceiling: Unl
Heat Index: 33°   Visibility: 10mi
Dew Point: 15°   Wind: 3mph
Humidity: 48%   Direction: 120°ESE
Pressure: 29.92"   Gusts: NA
Location:  40.18°N, 118.47°W
Report Text: KLOL 201153Z AUTO 12003KT 10SM CLR 01/M09 A2992 RMK AO2 SLP118 T00061094 10078 20006 55002
Loading
Personal Weather Stations






























Interactive Weather Map
Tropical Storm Tracking
New forecast layout! Learn more

10-Day Weather Forecast

Advertisements
Track Severe Weather on mobile